createdAt,value
2018-07-09T00:02:26.169Z,16.81
2018-07-09T00:04:54.662Z,16.83
2018-07-09T00:07:23.153Z,16.79
2018-07-09T00:09:51.679Z,16.76
2018-07-09T00:12:20.236Z,16.74
2018-07-09T00:14:48.728Z,16.68
2018-07-09T00:17:17.272Z,16.56
2018-07-09T00:19:45.772Z,16.45
2018-07-09T00:22:14.230Z,16.31
2018-07-09T00:24:42.785Z,16.20
2018-07-09T00:27:11.210Z,16.06
2018-07-09T00:29:39.695Z,15.92
2018-07-09T00:32:08.188Z,15.87
2018-07-09T00:34:36.803Z,15.88
2018-07-09T00:37:05.674Z,15.88
2018-07-09T00:39:34.346Z,15.90
2018-07-09T00:42:02.857Z,15.91
2018-07-09T00:44:31.327Z,15.94
2018-07-09T00:46:59.951Z,15.94
2018-07-09T00:49:28.515Z,15.94
2018-07-09T00:51:57.256Z,15.96
2018-07-09T00:54:25.936Z,15.97
2018-07-09T00:56:54.422Z,15.97
2018-07-09T00:59:22.940Z,15.95
2018-07-09T01:01:51.467Z,15.96
2018-07-09T01:04:19.992Z,15.93
2018-07-09T01:06:48.489Z,15.78
2018-07-09T01:09:17.029Z,15.65
2018-07-09T01:11:46.795Z,15.57
2018-07-09T01:14:15.531Z,15.50
2018-07-09T01:16:44.028Z,15.44
2018-07-09T01:19:12.656Z,15.44
2018-07-09T01:21:41.191Z,15.41
2018-07-09T01:24:09.764Z,15.34
2018-07-09T01:26:38.290Z,15.18
2018-07-09T01:29:06.849Z,15.01
2018-07-09T01:31:35.441Z,14.98
2018-07-09T01:34:03.884Z,14.96
2018-07-09T01:36:32.433Z,14.95
2018-07-09T01:39:00.966Z,14.92
2018-07-09T01:41:29.572Z,14.92
2018-07-09T01:43:58.008Z,14.94
2018-07-09T01:46:26.549Z,14.90
2018-07-09T01:48:55.093Z,14.86
2018-07-09T01:51:23.636Z,14.89
2018-07-09T01:53:52.151Z,14.91
2018-07-09T01:56:23.715Z,14.88
2018-07-09T01:58:52.197Z,14.87
2018-07-09T02:01:20.684Z,14.86
2018-07-09T02:03:49.311Z,14.81
2018-07-09T02:06:17.917Z,14.78
2018-07-09T02:08:46.436Z,14.77
2018-07-09T02:11:15.220Z,14.75
2018-07-09T02:13:43.670Z,14.68
2018-07-09T02:16:12.185Z,14.56
2018-07-09T02:18:40.625Z,14.44
2018-07-09T02:21:09.172Z,14.45
2018-07-09T02:23:37.645Z,14.48
2018-07-09T02:26:06.212Z,14.49
2018-07-09T02:31:02.369Z,14.51
2018-07-09T02:33:30.854Z,14.50
2018-07-09T02:35:59.329Z,14.47
2018-07-09T02:38:28.110Z,14.44
2018-07-09T02:40:56.557Z,14.37
2018-07-09T02:43:25.056Z,14.22
2018-07-09T02:45:53.553Z,14.10
2018-07-09T02:48:22.048Z,14.14
2018-07-09T02:50:50.516Z,14.18
2018-07-09T02:53:19.004Z,14.12
2018-07-09T02:55:47.487Z,14.12
2018-07-09T02:58:15.964Z,14.12
2018-07-09T03:00:44.514Z,14.16
2018-07-09T03:03:12.988Z,14.18
2018-07-09T03:05:41.452Z,14.15
2018-07-09T03:08:10.093Z,14.15
2018-07-09T03:10:38.569Z,14.20
2018-07-09T03:13:07.050Z,14.10
2018-07-09T03:15:35.552Z,14.12
2018-07-09T03:18:04.048Z,14.10
2018-07-09T03:20:32.610Z,14.09
2018-07-09T03:23:01.096Z,14.04
2018-07-09T03:25:29.785Z,14.00
2018-07-09T03:27:58.206Z,13.93
2018-07-09T03:30:26.737Z,13.96
2018-07-09T03:32:55.218Z,14.00
2018-07-09T03:35:23.752Z,14.07
2018-07-09T03:37:52.307Z,14.12
2018-07-09T03:40:20.778Z,14.11
2018-07-09T03:42:49.233Z,14.16
2018-07-09T03:45:26.450Z,14.22
2018-07-09T03:47:55.018Z,14.31
2018-07-09T03:50:23.621Z,14.37
2018-07-09T03:52:52.065Z,14.41
2018-07-09T03:55:20.620Z,14.45
2018-07-09T03:57:49.171Z,14.47
2018-07-09T04:00:18.566Z,14.50
2018-07-09T04:02:47.057Z,14.49
2018-07-09T04:05:15.618Z,14.54
2018-07-09T04:07:44.111Z,14.59
2018-07-09T04:10:12.587Z,14.64
2018-07-09T04:12:41.009Z,14.70
2018-07-09T04:15:13.253Z,14.75
2018-07-09T04:17:41.721Z,14.76
2018-07-09T04:20:10.222Z,14.79
2018-07-09T04:22:38.762Z,14.84
2018-07-09T04:25:07.274Z,14.88
2018-07-09T04:27:35.800Z,14.92
2018-07-09T04:30:04.387Z,15.23
2018-07-09T04:32:32.891Z,15.94
2018-07-09T04:35:01.408Z,16.67
2018-07-09T04:37:29.977Z,17.13
2018-07-09T04:39:58.475Z,17.48
2018-07-09T04:42:26.905Z,17.37
2018-07-09T04:44:55.562Z,17.07
2018-07-09T04:47:24.142Z,16.84
2018-07-09T04:49:52.608Z,16.64
2018-07-09T04:52:21.081Z,16.53
2018-07-09T04:54:49.605Z,16.47
2018-07-09T04:57:18.106Z,16.45
2018-07-09T04:59:46.636Z,16.47
2018-07-09T05:02:15.320Z,16.50
2018-07-09T05:04:43.793Z,16.47
2018-07-09T05:07:12.284Z,16.47
2018-07-09T05:09:40.765Z,16.49
2018-07-09T05:12:09.184Z,16.44
2018-07-09T05:14:37.733Z,16.44
2018-07-09T05:17:06.391Z,16.51
2018-07-09T05:19:34.852Z,16.52
2018-07-09T05:22:03.389Z,16.51
2018-07-09T05:24:31.832Z,16.53
2018-07-09T05:27:00.349Z,16.55
2018-07-09T05:29:28.825Z,16.61
2018-07-09T05:31:57.300Z,16.64
2018-07-09T05:34:25.785Z,16.66
2018-07-09T05:36:54.316Z,16.70
2018-07-09T05:39:22.911Z,16.72
2018-07-09T05:41:51.477Z,16.75
2018-07-09T05:44:20.562Z,16.84
2018-07-09T05:46:49.044Z,16.92
2018-07-09T05:49:17.606Z,16.93
2018-07-09T05:51:47.048Z,17.03
2018-07-09T05:54:15.621Z,17.14
2018-07-09T05:56:44.269Z,17.16
2018-07-09T05:59:12.745Z,17.23
2018-07-09T06:01:41.337Z,17.34
2018-07-09T06:04:09.875Z,17.47
2018-07-09T06:06:38.539Z,17.58
2018-07-09T06:09:08.952Z,17.73
2018-07-09T06:11:37.444Z,17.95
2018-07-09T06:14:06.108Z,18.07
2018-07-09T06:16:34.586Z,18.10
2018-07-09T06:19:03.186Z,18.15
2018-07-09T06:21:31.850Z,18.24
2018-07-09T06:24:00.954Z,18.32
2018-07-09T06:26:29.480Z,18.41
2018-07-09T06:28:58.019Z,18.55
2018-07-09T06:31:26.690Z,18.64
2018-07-09T06:33:55.105Z,18.71
2018-07-09T06:36:23.622Z,18.76
2018-07-09T06:38:52.151Z,18.87
2018-07-09T06:41:20.722Z,18.97
2018-07-09T06:43:49.195Z,19.07
2018-07-09T06:46:17.698Z,19.16
2018-07-09T06:48:46.282Z,19.24
2018-07-09T06:51:14.851Z,19.30
2018-07-09T06:53:43.396Z,19.33
2018-07-09T06:56:11.846Z,19.29
2018-07-09T06:58:40.417Z,19.28
2018-07-09T07:01:08.997Z,19.25
2018-07-09T07:03:37.474Z,19.28
2018-07-09T07:06:06.017Z,19.38
2018-07-09T07:08:34.554Z,19.31
2018-07-09T07:11:03.274Z,19.36
2018-07-09T07:13:31.736Z,19.52
2018-07-09T07:16:00.323Z,19.62
2018-07-09T07:18:28.884Z,19.68
2018-07-09T07:20:57.503Z,19.77
2018-07-09T07:23:26.225Z,19.78
2018-07-09T07:25:54.783Z,19.85
2018-07-09T07:28:23.458Z,19.93
2018-07-09T07:30:52.029Z,20.12
2018-07-09T07:33:20.510Z,20.28
2018-07-09T07:35:49.117Z,20.25
2018-07-09T07:38:17.706Z,20.10
2018-07-09T07:40:46.328Z,20.12
2018-07-09T07:43:14.821Z,20.15
2018-07-09T07:45:43.329Z,20.21
2018-07-09T07:48:11.921Z,20.30
2018-07-09T07:50:40.536Z,20.50
2018-07-09T07:53:09.012Z,20.55
2018-07-09T07:55:37.584Z,20.53
2018-07-09T07:58:06.120Z,20.42
2018-07-09T08:00:34.630Z,20.28
2018-07-09T08:03:03.326Z,20.16
2018-07-09T08:05:31.679Z,20.09
2018-07-09T08:08:00.243Z,20.09
2018-07-09T08:10:28.728Z,20.11
2018-07-09T08:13:13.442Z,20.21
2018-07-09T08:15:25.783Z,20.25
2018-07-09T08:17:54.291Z,20.28
2018-07-09T08:20:22.773Z,20.30
2018-07-09T08:22:51.360Z,20.26
2018-07-09T08:25:19.845Z,20.27
2018-07-09T08:27:48.395Z,20.33
2018-07-09T08:30:16.900Z,20.32
2018-07-09T08:32:45.485Z,20.37
2018-07-09T08:35:14.065Z,20.33
2018-07-09T08:37:42.645Z,20.37
2018-07-09T08:40:11.253Z,20.44
2018-07-09T08:42:39.850Z,20.43
2018-07-09T08:45:08.410Z,20.51
2018-07-09T08:47:36.883Z,20.60
2018-07-09T08:50:05.464Z,20.61
2018-07-09T08:52:34.082Z,20.62
2018-07-09T08:55:02.666Z,20.72
2018-07-09T08:57:31.137Z,20.83
2018-07-09T08:59:59.699Z,20.89
2018-07-09T09:02:28.337Z,20.94
2018-07-09T09:04:56.859Z,20.94
2018-07-09T09:07:25.520Z,21.00
2018-07-09T09:09:53.985Z,21.00
2018-07-09T09:12:22.412Z,20.96
2018-07-09T09:14:51.020Z,21.04
2018-07-09T09:17:19.629Z,21.02
2018-07-09T09:19:48.163Z,21.22
2018-07-09T09:22:16.699Z,21.49
2018-07-09T09:24:45.213Z,21.65
2018-07-09T09:27:13.684Z,21.83
2018-07-09T09:29:42.213Z,21.98
2018-07-09T09:32:10.730Z,22.04
2018-07-09T09:34:39.349Z,22.19
2018-07-09T09:37:08.156Z,22.30
2018-07-09T09:39:37.041Z,22.47
2018-07-09T09:42:05.951Z,22.65
2018-07-09T09:44:34.567Z,22.71
2018-07-09T09:47:03.151Z,22.69
2018-07-09T09:49:31.642Z,22.67
2018-07-09T09:52:00.218Z,22.75
2018-07-09T09:54:28.739Z,22.87
2018-07-09T09:56:57.293Z,22.99
2018-07-09T09:59:25.933Z,23.13
2018-07-09T10:01:54.447Z,23.21
2018-07-09T10:04:23.002Z,23.49
2018-07-09T10:06:51.579Z,23.73
2018-07-09T10:09:20.242Z,23.92
2018-07-09T10:11:48.738Z,24.16
2018-07-09T10:14:17.235Z,24.25
2018-07-09T10:16:45.709Z,24.15
2018-07-09T10:19:14.525Z,24.05
2018-07-09T10:21:43.291Z,24.12
2018-07-09T10:24:11.799Z,24.16
2018-07-09T10:26:40.497Z,24.27
2018-07-09T10:29:09.047Z,24.37
2018-07-09T10:31:37.724Z,24.51
2018-07-09T10:34:06.228Z,24.73
2018-07-09T10:36:35.416Z,24.93
2018-07-09T10:39:05.199Z,24.88
2018-07-09T10:41:33.701Z,24.60
2018-07-09T10:44:02.206Z,24.49
2018-07-09T10:46:30.749Z,24.65
2018-07-09T10:48:59.329Z,24.89
2018-07-09T10:51:27.804Z,25.40
2018-07-09T10:53:56.286Z,25.67
2018-07-09T10:56:24.806Z,25.40
2018-07-09T10:58:53.366Z,25.09
2018-07-09T11:01:22.178Z,24.70
2018-07-09T11:03:50.785Z,24.35
2018-07-09T11:06:19.373Z,24.26
2018-07-09T11:08:48.078Z,24.84
2018-07-09T11:11:16.689Z,25.62
2018-07-09T11:13:45.206Z,26.17
2018-07-09T11:16:13.718Z,26.29
2018-07-09T11:18:42.281Z,25.97
2018-07-09T11:21:10.847Z,25.60
2018-07-09T11:23:39.376Z,25.43
2018-07-09T11:26:08.545Z,25.69
2018-07-09T11:28:37.165Z,26.18
2018-07-09T11:31:05.696Z,26.45
2018-07-09T11:33:34.386Z,26.62
2018-07-09T11:36:03.022Z,26.95
2018-07-09T11:38:31.576Z,27.32
2018-07-09T11:41:00.029Z,27.53
2018-07-09T11:43:28.487Z,27.24
2018-07-09T11:45:57.095Z,27.58
2018-07-09T11:48:25.906Z,27.97
2018-07-09T11:50:54.609Z,28.67
2018-07-09T11:53:23.931Z,29.13
2018-07-09T11:55:52.566Z,29.42
2018-07-09T11:58:21.167Z,29.77
2018-07-09T12:00:49.888Z,29.52
2018-07-09T12:03:18.380Z,29.33
2018-07-09T12:05:46.978Z,29.09
2018-07-09T12:08:15.566Z,28.66
2018-07-09T12:10:44.152Z,28.18
2018-07-09T12:13:12.693Z,28.21
2018-07-09T12:15:41.336Z,28.44
2018-07-09T12:18:10.041Z,28.40
2018-07-09T12:20:38.598Z,27.94
2018-07-09T12:23:07.238Z,27.45
2018-07-09T12:25:35.908Z,27.09
2018-07-09T12:28:04.625Z,26.88
2018-07-09T12:30:33.270Z,26.79
2018-07-09T12:33:01.905Z,27.19
2018-07-09T12:35:30.493Z,28.13
2018-07-09T12:37:59.064Z,28.98
2018-07-09T12:40:27.645Z,29.24
2018-07-09T12:42:56.387Z,29.39
2018-07-09T12:45:25.102Z,29.02
2018-07-09T12:47:53.601Z,28.55
2018-07-09T12:50:22.193Z,28.43
2018-07-09T12:52:50.759Z,28.36
2018-07-09T12:55:19.492Z,28.29
2018-07-09T12:57:48.068Z,28.31
2018-07-09T13:00:16.643Z,28.49
2018-07-09T13:02:45.245Z,28.72
2018-07-09T13:05:13.854Z,28.93
2018-07-09T13:07:42.504Z,29.18
2018-07-09T13:10:10.996Z,29.27
2018-07-09T13:12:39.593Z,29.45
2018-07-09T13:15:08.161Z,29.48
2018-07-09T13:17:37.617Z,29.74
2018-07-09T13:20:06.239Z,29.71
2018-07-09T13:22:34.784Z,29.30
2018-07-09T13:25:03.226Z,28.94
2018-07-09T13:27:33.398Z,28.50
2018-07-09T13:30:02.036Z,28.18
2018-07-09T13:32:30.595Z,27.74
2018-07-09T13:34:59.218Z,27.50
2018-07-09T13:37:27.871Z,27.64
2018-07-09T13:39:56.473Z,27.70
2018-07-09T13:42:25.483Z,27.58
2018-07-09T13:44:54.050Z,27.30
2018-07-09T13:47:22.537Z,27.12
2018-07-09T13:49:51.088Z,26.95
2018-07-09T13:52:19.652Z,26.69
2018-07-09T13:54:48.303Z,26.36
2018-07-09T13:57:16.805Z,26.03
2018-07-09T13:59:45.367Z,25.72
2018-07-09T14:02:13.877Z,25.55
2018-07-09T14:04:42.324Z,25.40
2018-07-09T14:07:10.846Z,25.21
2018-07-09T14:09:39.339Z,25.11
2018-07-09T14:12:08.201Z,25.13
2018-07-09T14:14:36.680Z,25.01
2018-07-09T14:17:05.181Z,24.98
2018-07-09T14:20:42.303Z,24.96
2018-07-09T14:23:12.177Z,24.85
2018-07-09T14:25:40.854Z,24.94
2018-07-09T14:28:09.447Z,24.94
2018-07-09T14:30:38.057Z,24.83
2018-07-09T14:33:06.822Z,24.79
2018-07-09T14:35:35.390Z,24.74
2018-07-09T14:38:04.033Z,24.77
2018-07-09T14:40:32.670Z,24.69
2018-07-09T14:43:01.286Z,24.65
2018-07-09T14:45:29.754Z,24.61
2018-07-09T14:47:58.213Z,24.61
2018-07-09T14:50:26.827Z,24.63
2018-07-09T14:52:56.087Z,24.74
2018-07-09T14:55:24.576Z,24.76
2018-07-09T14:57:55.145Z,24.77
2018-07-09T15:00:23.760Z,24.75
2018-07-09T15:02:52.304Z,24.55
2018-07-09T15:05:20.846Z,24.34
2018-07-09T15:07:49.374Z,24.21
2018-07-09T15:10:17.957Z,24.19
2018-07-09T15:12:46.537Z,24.19
2018-07-09T15:15:15.096Z,24.29
2018-07-09T15:17:43.824Z,24.39
2018-07-09T15:20:12.426Z,24.55
2018-07-09T15:22:41.044Z,24.64
2018-07-09T15:25:09.642Z,24.65
2018-07-09T15:27:38.329Z,24.60
2018-07-09T15:30:07.156Z,24.67
2018-07-09T15:32:35.749Z,24.73
2018-07-09T15:35:04.311Z,24.80
2018-07-09T15:37:32.856Z,24.88
2018-07-09T15:40:01.326Z,24.85
2018-07-09T15:42:29.935Z,25.01
2018-07-09T15:44:58.459Z,25.13
2018-07-09T15:47:26.973Z,25.24
2018-07-09T15:49:55.495Z,25.23
2018-07-09T15:52:23.973Z,25.17
2018-07-09T15:54:52.464Z,25.18
2018-07-09T15:57:20.944Z,25.07
2018-07-09T15:59:49.488Z,24.97
2018-07-09T16:02:17.982Z,24.81
2018-07-09T16:04:46.613Z,24.63
2018-07-09T16:07:15.064Z,24.45
2018-07-09T16:09:43.628Z,24.35
2018-07-09T16:12:12.289Z,24.23
2018-07-09T16:14:40.798Z,24.18
2018-07-09T16:17:09.244Z,24.06
2018-07-09T16:19:37.707Z,23.96
2018-07-09T16:22:06.644Z,23.91
2018-07-09T16:24:35.133Z,23.88
2018-07-09T16:27:03.645Z,23.84
2018-07-09T16:29:32.161Z,23.83
2018-07-09T16:32:00.617Z,23.80
2018-07-09T16:34:29.152Z,23.87
2018-07-09T16:36:57.696Z,24.00
2018-07-09T16:39:26.214Z,24.01
2018-07-09T16:41:54.848Z,23.86
2018-07-09T16:44:23.487Z,23.72
2018-07-09T16:46:52.194Z,23.58
2018-07-09T16:49:20.600Z,23.53
2018-07-09T16:51:49.035Z,23.49
2018-07-09T16:54:17.629Z,23.44
2018-07-09T16:56:46.238Z,23.32
2018-07-09T16:59:14.881Z,23.21
2018-07-09T17:01:43.617Z,23.18
2018-07-09T17:04:12.285Z,23.15
2018-07-09T17:06:40.736Z,23.09
2018-07-09T17:09:09.207Z,23.10
2018-07-09T17:11:37.681Z,23.15
2018-07-09T17:14:06.202Z,23.16
2018-07-09T17:16:34.777Z,23.23
2018-07-09T17:19:03.305Z,23.24
2018-07-09T17:21:31.846Z,23.22
2018-07-09T17:24:00.468Z,23.22
2018-07-09T17:26:29.087Z,23.20
2018-07-09T17:29:00.424Z,23.17
2018-07-09T17:31:28.889Z,23.23
2018-07-09T17:33:59.284Z,23.30
2018-07-09T17:36:27.947Z,23.29
2018-07-09T17:38:56.444Z,23.19
2018-07-09T17:41:25.781Z,23.21
2018-07-09T17:43:54.947Z,23.26
2018-07-09T17:46:24.471Z,23.28
2018-07-09T17:48:53.058Z,23.33
2018-07-09T17:51:21.616Z,23.31
2018-07-09T17:53:50.086Z,23.36
2018-07-09T17:56:18.614Z,23.37
2018-07-09T17:58:47.085Z,23.31
2018-07-09T18:01:15.694Z,23.32
2018-07-09T18:03:45.052Z,23.29
2018-07-09T18:06:13.715Z,23.20
2018-07-09T18:08:42.323Z,23.10
2018-07-09T18:11:10.890Z,22.87
2018-07-09T18:13:39.448Z,22.77
2018-07-09T18:16:07.878Z,22.73
2018-07-09T18:18:36.331Z,22.77
2018-07-09T18:21:04.820Z,22.86
2018-07-09T18:23:33.295Z,22.80
2018-07-09T18:26:04.236Z,22.74
2018-07-09T18:28:32.788Z,22.68
2018-07-09T18:31:04.875Z,22.58
2018-07-09T18:33:33.385Z,22.51
2018-07-09T18:36:01.861Z,22.44
2018-07-09T18:38:30.454Z,22.39
2018-07-09T18:40:58.912Z,22.39
2018-07-09T18:43:27.362Z,22.31
2018-07-09T18:45:56.384Z,22.29
2018-07-09T18:48:24.953Z,22.21
2018-07-09T18:50:53.657Z,22.12
2018-07-09T18:53:22.213Z,22.10
2018-07-09T18:55:50.787Z,22.04
2018-07-09T18:58:19.375Z,21.99
2018-07-09T19:00:48.011Z,21.92
2018-07-09T19:03:16.585Z,21.87
2018-07-09T19:05:56.495Z,21.82
2018-07-09T19:08:25.213Z,21.70
2018-07-09T19:10:53.737Z,21.59
2018-07-09T19:13:22.240Z,21.48
2018-07-09T19:15:50.903Z,21.40
2018-07-09T19:18:31.117Z,21.26
2018-07-09T19:21:39.365Z,21.17
2018-07-09T19:24:08.136Z,21.08
2018-07-09T19:26:35.592Z,21.03
2018-07-09T19:29:02.872Z,21.02
2018-07-09T19:31:30.128Z,20.96
2018-07-09T19:33:57.385Z,20.89
2018-07-09T19:36:27.851Z,20.80
2018-07-09T19:38:55.190Z,20.72
2018-07-09T19:41:22.458Z,20.64
2018-07-09T19:43:49.707Z,20.59
2018-07-09T19:46:17.088Z,20.59
2018-07-09T19:48:47.341Z,20.54
2018-07-09T19:51:14.606Z,20.45
2018-07-09T19:53:42.241Z,20.38
2018-07-09T19:56:09.488Z,20.26
2018-07-09T19:58:36.787Z,20.16
2018-07-09T20:01:04.047Z,20.11
2018-07-09T20:03:31.314Z,20.10
2018-07-09T20:05:58.817Z,20.04
2018-07-09T20:08:31.379Z,19.96
2018-07-09T20:11:04.262Z,19.90
2018-07-09T20:14:02.845Z,19.85
2018-07-09T20:16:36.039Z,19.81
2018-07-09T20:19:04.664Z,19.78
2018-07-09T20:21:32.709Z,19.75
2018-07-09T20:24:02.404Z,19.72
2018-07-09T20:26:30.643Z,19.73
2018-07-09T20:28:58.545Z,19.70
2018-07-09T20:31:26.150Z,19.62
2018-07-09T20:33:54.176Z,19.52
2018-07-09T20:36:22.254Z,19.42
2018-07-09T20:38:50.321Z,19.40
2018-07-09T20:41:17.723Z,19.33
2018-07-09T20:43:45.443Z,19.27
2018-07-09T20:46:13.040Z,19.26
2018-07-09T20:48:41.448Z,19.22
2018-07-09T20:51:28.703Z,19.22
2018-07-09T20:53:57.012Z,19.16
2018-07-09T20:56:24.972Z,19.16
2018-07-09T20:58:53.229Z,19.08
2018-07-09T21:01:21.401Z,19.03
2018-07-09T21:03:53.778Z,19.00
2018-07-09T21:06:22.058Z,18.93
2018-07-09T21:08:50.021Z,18.92
2018-07-09T21:11:18.465Z,18.90
2018-07-09T21:13:46.805Z,18.79
2018-07-09T21:16:15.140Z,18.76
2018-07-09T21:18:43.279Z,18.70
2018-07-09T21:21:11.810Z,18.63
2018-07-09T21:23:40.058Z,18.57
2018-07-09T21:26:08.792Z,18.51
2018-07-09T21:28:37.360Z,18.49
2018-07-09T21:31:05.747Z,18.48
2018-07-09T21:33:34.119Z,18.49
2018-07-09T21:36:02.144Z,18.48
2018-07-09T21:38:29.490Z,18.46
2018-07-09T21:41:02.236Z,18.41
2018-07-09T21:43:29.606Z,18.38
2018-07-09T21:45:56.952Z,18.35
2018-07-09T21:48:29.794Z,18.31
2018-07-09T21:50:51.860Z,18.30
2018-07-09T21:53:19.114Z,18.29
2018-07-09T21:55:46.424Z,18.28
2018-07-09T21:58:37.576Z,18.23
2018-07-09T22:01:05.239Z,18.15
2018-07-09T22:03:32.538Z,18.16
2018-07-09T22:05:59.796Z,18.20
2018-07-09T22:08:27.069Z,18.21
2018-07-09T22:10:54.351Z,18.20
2018-07-09T22:13:21.614Z,18.17
2018-07-09T22:15:48.894Z,18.21
2018-07-09T22:18:16.478Z,18.19
2018-07-09T22:20:43.759Z,18.12
2018-07-09T22:23:11.024Z,18.08
2018-07-09T22:25:38.293Z,18.03
2018-07-09T22:28:05.588Z,17.99
2018-07-09T22:30:34.162Z,17.96
2018-07-09T22:33:02.906Z,17.88
2018-07-09T22:35:31.410Z,17.82
2018-07-09T22:37:59.868Z,17.83
2018-07-09T22:40:28.324Z,17.76
2018-07-09T22:42:57.037Z,17.67
2018-07-09T22:45:25.727Z,17.64
2018-07-09T22:47:54.203Z,17.66
2018-07-09T22:50:22.697Z,17.60
2018-07-09T22:52:51.183Z,17.60
2018-07-09T22:55:30.958Z,17.55
2018-07-09T22:58:08.833Z,17.48
2018-07-09T23:00:37.278Z,17.41
2018-07-09T23:03:13.295Z,17.40
2018-07-09T23:05:41.768Z,17.42
2018-07-09T23:08:10.528Z,17.31
2018-07-09T23:11:26.584Z,17.21
2018-07-09T23:17:12.239Z,17.16
2018-07-09T23:20:24.313Z,17.11
2018-07-09T23:22:51.729Z,17.08
2018-07-09T23:25:18.985Z,17.09
2018-07-09T23:27:46.222Z,17.09
2018-07-09T23:30:13.470Z,17.07
2018-07-09T23:32:40.731Z,17.00
2018-07-09T23:35:07.967Z,16.95
2018-07-09T23:37:35.238Z,16.90
2018-07-09T23:40:02.503Z,16.86
2018-07-09T23:42:29.751Z,16.90
2018-07-09T23:44:57.011Z,16.91
2018-07-09T23:47:24.268Z,16.85
2018-07-09T23:49:51.513Z,16.80
2018-07-09T23:52:18.777Z,16.70
2018-07-09T23:54:46.201Z,16.66
2018-07-09T23:57:36.508Z,16.70
